sensor_id;sensor_type;location;lat;lon;timestamp;temperature;humidity
439;DHT22;206;48.782;9.252;2023-02-01T00:01:56;6.30;53.80
439;DHT22;206;48.782;9.252;2023-02-01T00:04:21;6.30;54.00
439;DHT22;206;48.782;9.252;2023-02-01T00:06:47;6.30;54.20
439;DHT22;206;48.782;9.252;2023-02-01T00:09:13;6.40;53.90
439;DHT22;206;48.782;9.252;2023-02-01T00:11:38;6.40;53.70
439;DHT22;206;48.782;9.252;2023-02-01T00:14:04;6.30;53.90
439;DHT22;206;48.782;9.252;2023-02-01T00:16:31;6.20;55.00
439;DHT22;206;48.782;9.252;2023-02-01T00:19:02;6.10;55.70
439;DHT22;206;48.782;9.252;2023-02-01T00:21:29;6.10;55.80
439;DHT22;206;48.782;9.252;2023-02-01T00:23:55;6.20;55.80
439;DHT22;206;48.782;9.252;2023-02-01T00:26:31;6.20;55.90
439;DHT22;206;48.782;9.252;2023-02-01T00:28:57;6.20;56.50
439;DHT22;206;48.782;9.252;2023-02-01T00:31:23;6.10;55.80
439;DHT22;206;48.782;9.252;2023-02-01T00:33:48;6.10;55.80
439;DHT22;206;48.782;9.252;2023-02-01T00:36:14;6.10;55.80
439;DHT22;206;48.782;9.252;2023-02-01T00:38:40;6.10;55.80
439;DHT22;206;48.782;9.252;2023-02-01T00:41:12;6.10;55.80
439;DHT22;206;48.782;9.252;2023-02-01T00:43:39;6.20;55.70
439;DHT22;206;48.782;9.252;2023-02-01T00:46:04;6.10;55.80
439;DHT22;206;48.782;9.252;2023-02-01T00:48:31;6.20;55.70
439;DHT22;206;48.782;9.252;2023-02-01T00:51:14;6.20;55.40
439;DHT22;206;48.782;9.252;2023-02-01T00:53:40;6.20;55.20
439;DHT22;206;48.782;9.252;2023-02-01T00:56:07;6.20;54.90
439;DHT22;206;48.782;9.252;2023-02-01T00:58:33;6.20;55.00
439;DHT22;206;48.782;9.252;2023-02-01T01:01:08;6.20;54.70
439;DHT22;206;48.782;9.252;2023-02-01T01:03:36;6.20;55.30
439;DHT22;206;48.782;9.252;2023-02-01T01:06:08;6.20;54.50
439;DHT22;206;48.782;9.252;2023-02-01T01:08:34;6.20;54.70
439;DHT22;206;48.782;9.252;2023-02-01T01:11:05;6.30;54.60
439;DHT22;206;48.782;9.252;2023-02-01T01:13:31;6.30;54.60
439;DHT22;206;48.782;9.252;2023-02-01T01:16:00;6.20;54.30
439;DHT22;206;48.782;9.252;2023-02-01T01:18:28;6.20;54.40
439;DHT22;206;48.782;9.252;2023-02-01T01:20:54;6.20;55.00
439;DHT22;206;48.782;9.252;2023-02-01T01:23:19;6.20;54.90
439;DHT22;206;48.782;9.252;2023-02-01T01:25:45;6.20;55.10
439;DHT22;206;48.782;9.252;2023-02-01T01:28:10;6.20;55.10
439;DHT22;206;48.782;9.252;2023-02-01T01:30:36;6.10;55.30
439;DHT22;206;48.782;9.252;2023-02-01T01:33:02;6.10;55.80
439;DHT22;206;48.782;9.252;2023-02-01T01:35:29;6.10;55.80
439;DHT22;206;48.782;9.252;2023-02-01T01:37:56;6.10;55.80
439;DHT22;206;48.782;9.252;2023-02-01T01:40:21;6.10;55.80
439;DHT22;206;48.782;9.252;2023-02-01T01:42:47;6.10;55.80
439;DHT22;206;48.782;9.252;2023-02-01T01:45:29;6.10;55.80
439;DHT22;206;48.782;9.252;2023-02-01T01:48:07;6.10;55.50
439;DHT22;206;48.782;9.252;2023-02-01T01:50:52;6.20;55.20
439;DHT22;206;48.782;9.252;2023-02-01T01:53:22;6.20;54.90
439;DHT22;206;48.782;9.252;2023-02-01T01:55:50;6.20;55.00
439;DHT22;206;48.782;9.252;2023-02-01T01:58:25;6.20;54.90
439;DHT22;206;48.782;9.252;2023-02-01T02:00:53;6.20;54.70
439;DHT22;206;48.782;9.252;2023-02-01T02:03:25;6.20;54.90
439;DHT22;206;48.782;9.252;2023-02-01T02:05:53;6.30;54.50
439;DHT22;206;48.782;9.252;2023-02-01T02:08:21;6.20;54.60
439;DHT22;206;48.782;9.252;2023-02-01T02:10:48;6.30;54.50
439;DHT22;206;48.782;9.252;2023-02-01T02:13:34;6.30;55.00
439;DHT22;206;48.782;9.252;2023-02-01T02:19:03;6.40;53.30
439;DHT22;206;48.782;9.252;2023-02-01T02:27:21;6.40;53.20
439;DHT22;206;48.782;9.252;2023-02-01T02:35:20;6.40;53.50
439;DHT22;206;48.782;9.252;2023-02-01T02:38:18;6.40;53.40
439;DHT22;206;48.782;9.252;2023-02-01T02:46:29;6.40;54.00
439;DHT22;206;48.782;9.252;2023-02-01T02:49:42;6.40;54.10
439;DHT22;206;48.782;9.252;2023-02-01T02:52:17;6.40;53.90
439;DHT22;206;48.782;9.252;2023-02-01T02:55:04;6.40;53.80
439;DHT22;206;48.782;9.252;2023-02-01T02:57:40;6.40;53.60
439;DHT22;206;48.782;9.252;2023-02-01T03:00:30;6.40;53.90
439;DHT22;206;48.782;9.252;2023-02-01T03:03:15;6.40;54.20
439;DHT22;206;48.782;9.252;2023-02-01T03:05:59;6.40;54.30
439;DHT22;206;48.782;9.252;2023-02-01T03:08:27;6.50;54.20
439;DHT22;206;48.782;9.252;2023-02-01T03:11:08;6.50;54.10
439;DHT22;206;48.782;9.252;2023-02-01T03:16:28;6.60;54.20
439;DHT22;206;48.782;9.252;2023-02-01T03:21:43;6.60;54.00
439;DHT22;206;48.782;9.252;2023-02-01T03:24:23;6.50;54.40
439;DHT22;206;48.782;9.252;2023-02-01T03:27:24;6.50;54.20
439;DHT22;206;48.782;9.252;2023-02-01T03:32:44;6.50;54.70
439;DHT22;206;48.782;9.252;2023-02-01T03:36:00;6.50;54.90
439;DHT22;206;48.782;9.252;2023-02-01T03:41:33;6.50;55.20
439;DHT22;206;48.782;9.252;2023-02-01T03:46:52;6.50;55.40
439;DHT22;206;48.782;9.252;2023-02-01T03:49:30;6.40;55.90
439;DHT22;206;48.782;9.252;2023-02-01T03:51:58;6.40;56.00
439;DHT22;206;48.782;9.252;2023-02-01T03:54:26;6.40;56.00
439;DHT22;206;48.782;9.252;2023-02-01T03:56:55;6.40;56.00
439;DHT22;206;48.782;9.252;2023-02-01T03:59:22;6.30;56.30
439;DHT22;206;48.782;9.252;2023-02-01T04:01:47;6.40;56.40
439;DHT22;206;48.782;9.252;2023-02-01T04:04:13;6.40;56.10
439;DHT22;206;48.782;9.252;2023-02-01T04:06:46;6.40;56.00
439;DHT22;206;48.782;9.252;2023-02-01T04:09:11;6.40;56.20
439;DHT22;206;48.782;9.252;2023-02-01T04:11:37;6.40;57.00
439;DHT22;206;48.782;9.252;2023-02-01T04:14:03;6.50;56.60
439;DHT22;206;48.782;9.252;2023-02-01T04:16:30;6.50;57.30
439;DHT22;206;48.782;9.252;2023-02-01T04:18:56;6.50;56.90
439;DHT22;206;48.782;9.252;2023-02-01T04:21:22;6.50;56.60
439;DHT22;206;48.782;9.252;2023-02-01T04:23:48;6.60;56.20
439;DHT22;206;48.782;9.252;2023-02-01T04:26:14;6.60;56.20
439;DHT22;206;48.782;9.252;2023-02-01T04:28:41;6.60;55.90
439;DHT22;206;48.782;9.252;2023-02-01T04:31:07;6.60;56.10
439;DHT22;206;48.782;9.252;2023-02-01T04:33:33;6.70;55.40
439;DHT22;206;48.782;9.252;2023-02-01T04:35:58;6.70;55.00
439;DHT22;206;48.782;9.252;2023-02-01T04:38:24;6.70;55.60
439;DHT22;206;48.782;9.252;2023-02-01T04:40:49;6.70;55.80
439;DHT22;206;48.782;9.252;2023-02-01T04:43:16;6.60;56.80
439;DHT22;206;48.782;9.252;2023-02-01T04:45:48;6.60;56.20
439;DHT22;206;48.782;9.252;2023-02-01T04:48:14;6.50;56.60
439;DHT22;206;48.782;9.252;2023-02-01T04:50:40;6.50;56.90
439;DHT22;206;48.782;9.252;2023-02-01T04:53:05;6.50;56.70
439;DHT22;206;48.782;9.252;2023-02-01T04:55:31;6.40;57.50
439;DHT22;206;48.782;9.252;2023-02-01T04:57:56;6.40;57.50
439;DHT22;206;48.782;9.252;2023-02-01T05:00:22;6.50;57.30
439;DHT22;206;48.782;9.252;2023-02-01T05:02:48;6.50;57.20
439;DHT22;206;48.782;9.252;2023-02-01T05:05:13;6.50;57.60
439;DHT22;206;48.782;9.252;2023-02-01T05:07:39;6.50;56.40
439;DHT22;206;48.782;9.252;2023-02-01T05:10:05;6.50;56.10
439;DHT22;206;48.782;9.252;2023-02-01T05:12:30;6.50;56.10
439;DHT22;206;48.782;9.252;2023-02-01T05:15:32;6.50;56.10
439;DHT22;206;48.782;9.252;2023-02-01T05:17:58;6.60;56.20
439;DHT22;206;48.782;9.252;2023-02-01T05:20:24;6.60;56.20
439;DHT22;206;48.782;9.252;2023-02-01T05:22:50;6.60;56.20
439;DHT22;206;48.782;9.252;2023-02-01T05:25:16;6.60;56.20
439;DHT22;206;48.782;9.252;2023-02-01T05:27:41;6.70;55.90
439;DHT22;206;48.782;9.252;2023-02-01T05:30:08;6.70;55.10
439;DHT22;206;48.782;9.252;2023-02-01T05:32:34;6.70;54.40
439;DHT22;206;48.782;9.252;2023-02-01T05:35:00;6.70;54.30
439;DHT22;206;48.782;9.252;2023-02-01T05:37:26;6.80;54.30
439;DHT22;206;48.782;9.252;2023-02-01T05:39:51;6.80;53.90
439;DHT22;206;48.782;9.252;2023-02-01T05:42:17;6.80;53.40
439;DHT22;206;48.782;9.252;2023-02-01T05:44:43;6.80;53.30
439;DHT22;206;48.782;9.252;2023-02-01T05:47:09;6.80;53.30
439;DHT22;206;48.782;9.252;2023-02-01T05:49:35;6.90;53.20
439;DHT22;206;48.782;9.252;2023-02-01T05:52:02;6.90;52.90
439;DHT22;206;48.782;9.252;2023-02-01T05:54:28;6.80;52.70
439;DHT22;206;48.782;9.252;2023-02-01T05:56:54;6.80;52.90
439;DHT22;206;48.782;9.252;2023-02-01T05:59:19;6.80;52.30
439;DHT22;206;48.782;9.252;2023-02-01T06:01:45;6.90;52.30
439;DHT22;206;48.782;9.252;2023-02-01T06:04:11;6.90;52.80
439;DHT22;206;48.782;9.252;2023-02-01T06:06:36;6.80;54.00
439;DHT22;206;48.782;9.252;2023-02-01T06:09:02;6.80;55.50
439;DHT22;206;48.782;9.252;2023-02-01T06:11:28;6.80;56.00
439;DHT22;206;48.782;9.252;2023-02-01T06:13:54;6.80;56.30
439;DHT22;206;48.782;9.252;2023-02-01T06:16:21;6.70;56.30
439;DHT22;206;48.782;9.252;2023-02-01T06:18:48;6.70;56.60
439;DHT22;206;48.782;9.252;2023-02-01T06:21:14;6.70;56.80
439;DHT22;206;48.782;9.252;2023-02-01T06:23:49;6.70;56.80
439;DHT22;206;48.782;9.252;2023-02-01T06:26:15;6.60;57.00
439;DHT22;206;48.782;9.252;2023-02-01T06:28:42;6.60;57.30
439;DHT22;206;48.782;9.252;2023-02-01T06:31:08;6.60;57.00
439;DHT22;206;48.782;9.252;2023-02-01T06:33:34;6.60;56.60
439;DHT22;206;48.782;9.252;2023-02-01T06:36:01;6.70;57.00
439;DHT22;206;48.782;9.252;2023-02-01T06:38:29;6.60;56.50
439;DHT22;206;48.782;9.252;2023-02-01T06:40:56;6.70;57.90
439;DHT22;206;48.782;9.252;2023-02-01T06:43:23;6.70;57.40
439;DHT22;206;48.782;9.252;2023-02-01T06:45:49;6.70;57.30
439;DHT22;206;48.782;9.252;2023-02-01T06:48:15;6.70;55.80
439;DHT22;206;48.782;9.252;2023-02-01T06:50:41;6.80;55.00
439;DHT22;206;48.782;9.252;2023-02-01T06:53:06;6.80;55.30
439;DHT22;206;48.782;9.252;2023-02-01T06:55:32;6.90;55.90
439;DHT22;206;48.782;9.252;2023-02-01T06:57:58;6.90;55.50
439;DHT22;206;48.782;9.252;2023-02-01T07:00:24;7.00;55.30
439;DHT22;206;48.782;9.252;2023-02-01T07:02:50;7.10;54.40
439;DHT22;206;48.782;9.252;2023-02-01T07:05:16;7.00;54.50
439;DHT22;206;48.782;9.252;2023-02-01T07:07:42;7.10;54.30
439;DHT22;206;48.782;9.252;2023-02-01T07:10:09;7.10;53.40
439;DHT22;206;48.782;9.252;2023-02-01T07:12:35;7.10;53.40
439;DHT22;206;48.782;9.252;2023-02-01T07:15:01;7.10;52.80
439;DHT22;206;48.782;9.252;2023-02-01T07:17:28;7.10;51.90
439;DHT22;206;48.782;9.252;2023-02-01T07:19:55;7.20;51.20
439;DHT22;206;48.782;9.252;2023-02-01T07:22:20;7.20;52.60
439;DHT22;206;48.782;9.252;2023-02-01T07:24:46;7.30;52.10
439;DHT22;206;48.782;9.252;2023-02-01T07:27:12;7.40;51.90
439;DHT22;206;48.782;9.252;2023-02-01T07:29:38;7.40;51.00
439;DHT22;206;48.782;9.252;2023-02-01T07:32:03;7.40;51.10
439;DHT22;206;48.782;9.252;2023-02-01T07:34:29;7.40;50.60
439;DHT22;206;48.782;9.252;2023-02-01T07:36:56;7.40;50.10
439;DHT22;206;48.782;9.252;2023-02-01T07:39:22;7.50;49.90
439;DHT22;206;48.782;9.252;2023-02-01T07:41:47;7.50;49.80
439;DHT22;206;48.782;9.252;2023-02-01T07:44:13;7.50;49.00
439;DHT22;206;48.782;9.252;2023-02-01T07:46:39;7.50;48.40
439;DHT22;206;48.782;9.252;2023-02-01T07:49:05;7.60;48.60
439;DHT22;206;48.782;9.252;2023-02-01T07:51:31;7.70;48.80
439;DHT22;206;48.782;9.252;2023-02-01T07:53:56;7.60;49.00
439;DHT22;206;48.782;9.252;2023-02-01T07:56:22;7.60;48.20
439;DHT22;206;48.782;9.252;2023-02-01T07:58:49;7.60;48.40
439;DHT22;206;48.782;9.252;2023-02-01T08:01:26;7.60;47.90
439;DHT22;206;48.782;9.252;2023-02-01T08:03:56;7.70;48.30
439;DHT22;206;48.782;9.252;2023-02-01T08:06:23;7.70;47.70
439;DHT22;206;48.782;9.252;2023-02-01T08:08:51;7.70;47.60
439;DHT22;206;48.782;9.252;2023-02-01T08:11:18;7.60;47.40
439;DHT22;206;48.782;9.252;2023-02-01T08:13:44;7.60;46.60
439;DHT22;206;48.782;9.252;2023-02-01T08:16:11;7.60;46.40
439;DHT22;206;48.782;9.252;2023-02-01T08:18:38;7.70;46.10
439;DHT22;206;48.782;9.252;2023-02-01T08:23:35;7.70;47.30
439;DHT22;206;48.782;9.252;2023-02-01T08:26:06;7.70;47.30
439;DHT22;206;48.782;9.252;2023-02-01T08:28:32;7.70;47.50
439;DHT22;206;48.782;9.252;2023-02-01T08:30:57;7.70;47.00
439;DHT22;206;48.782;9.252;2023-02-01T08:33:23;7.70;47.60
439;DHT22;206;48.782;9.252;2023-02-01T08:35:49;7.80;46.70
439;DHT22;206;48.782;9.252;2023-02-01T08:38:14;7.90;45.90
439;DHT22;206;48.782;9.252;2023-02-01T08:40:40;7.90;46.10
439;DHT22;206;48.782;9.252;2023-02-01T08:43:07;8.00;46.60
439;DHT22;206;48.782;9.252;2023-02-01T08:45:33;8.00;45.70
439;DHT22;206;48.782;9.252;2023-02-01T08:47:59;8.10;45.60
439;DHT22;206;48.782;9.252;2023-02-01T08:50:25;8.20;45.20
439;DHT22;206;48.782;9.252;2023-02-01T08:52:52;8.30;44.10
439;DHT22;206;48.782;9.252;2023-02-01T08:55:18;8.40;43.80
439;DHT22;206;48.782;9.252;2023-02-01T08:57:43;8.50;42.60
439;DHT22;206;48.782;9.252;2023-02-01T09:00:12;8.50;42.40
439;DHT22;206;48.782;9.252;2023-02-01T09:02:39;8.60;42.00
439;DHT22;206;48.782;9.252;2023-02-01T09:05:05;8.50;41.40
439;DHT22;206;48.782;9.252;2023-02-01T09:07:32;8.60;41.90
439;DHT22;206;48.782;9.252;2023-02-01T09:09:58;8.50;41.10
439;DHT22;206;48.782;9.252;2023-02-01T09:12:27;8.50;41.90
439;DHT22;206;48.782;9.252;2023-02-01T09:14:52;8.50;41.80
439;DHT22;206;48.782;9.252;2023-02-01T09:17:18;8.50;41.70
439;DHT22;206;48.782;9.252;2023-02-01T09:19:43;8.40;41.10
439;DHT22;206;48.782;9.252;2023-02-01T09:22:09;8.30;39.60
439;DHT22;206;48.782;9.252;2023-02-01T09:24:34;8.30;38.70
439;DHT22;206;48.782;9.252;2023-02-01T09:27:00;8.30;38.80
439;DHT22;206;48.782;9.252;2023-02-01T09:29:26;8.30;40.30
439;DHT22;206;48.782;9.252;2023-02-01T09:31:51;8.20;40.30
439;DHT22;206;48.782;9.252;2023-02-01T09:34:17;8.30;39.40
439;DHT22;206;48.782;9.252;2023-02-01T09:36:42;8.30;40.20
439;DHT22;206;48.782;9.252;2023-02-01T09:39:08;8.50;40.40
439;DHT22;206;48.782;9.252;2023-02-01T09:46:40;8.70;37.90
439;DHT22;206;48.782;9.252;2023-02-01T09:49:12;8.80;37.60
439;DHT22;206;48.782;9.252;2023-02-01T09:51:44;8.80;37.00
439;DHT22;206;48.782;9.252;2023-02-01T09:54:16;8.80;36.10
439;DHT22;206;48.782;9.252;2023-02-01T09:56:48;8.80;36.10
439;DHT22;206;48.782;9.252;2023-02-01T09:59:32;8.70;35.30
439;DHT22;206;48.782;9.252;2023-02-01T10:02:02;8.70;35.90
439;DHT22;206;48.782;9.252;2023-02-01T10:04:29;8.80;34.80
439;DHT22;206;48.782;9.252;2023-02-01T10:07:10;8.80;34.70
439;DHT22;206;48.782;9.252;2023-02-01T10:24:02;8.70;33.10
439;DHT22;206;48.782;9.252;2023-02-01T10:26:33;8.80;32.50
439;DHT22;206;48.782;9.252;2023-02-01T10:29:12;8.90;32.60
439;DHT22;206;48.782;9.252;2023-02-01T10:31:40;9.00;32.20
439;DHT22;206;48.782;9.252;2023-02-01T10:34:32;9.20;31.40
439;DHT22;206;48.782;9.252;2023-02-01T10:37:28;9.40;30.60
439;DHT22;206;48.782;9.252;2023-02-01T10:39:56;9.40;30.40
439;DHT22;206;48.782;9.252;2023-02-01T10:42:26;9.20;29.90
439;DHT22;206;48.782;9.252;2023-02-01T10:44:53;9.20;30.10
439;DHT22;206;48.782;9.252;2023-02-01T10:47:19;9.10;30.10
439;DHT22;206;48.782;9.252;2023-02-01T10:52:44;9.00;29.90
439;DHT22;206;48.782;9.252;2023-02-01T10:55:32;8.90;30.00
439;DHT22;206;48.782;9.252;2023-02-01T10:58:03;8.90;30.00
439;DHT22;206;48.782;9.252;2023-02-01T11:00:46;8.80;30.20
439;DHT22;206;48.782;9.252;2023-02-01T11:05:50;8.80;30.00
439;DHT22;206;48.782;9.252;2023-02-01T11:08:17;8.80;29.90
439;DHT22;206;48.782;9.252;2023-02-01T11:10:44;8.90;29.70
439;DHT22;206;48.782;9.252;2023-02-01T11:13:18;8.90;29.20
439;DHT22;206;48.782;9.252;2023-02-01T11:15:45;8.90;28.90
439;DHT22;206;48.782;9.252;2023-02-01T11:18:19;8.90;29.20
439;DHT22;206;48.782;9.252;2023-02-01T11:20:46;8.90;29.20
439;DHT22;206;48.782;9.252;2023-02-01T11:23:19;8.90;29.20
439;DHT22;206;48.782;9.252;2023-02-01T11:25:55;8.90;29.00
439;DHT22;206;48.782;9.252;2023-02-01T11:28:32;9.00;29.20
439;DHT22;206;48.782;9.252;2023-02-01T11:31:04;9.00;29.10
439;DHT22;206;48.782;9.252;2023-02-01T11:33:33;9.00;28.70
439;DHT22;206;48.782;9.252;2023-02-01T11:36:08;9.00;28.40
439;DHT22;206;48.782;9.252;2023-02-01T11:38:34;9.00;28.60
439;DHT22;206;48.782;9.252;2023-02-01T11:41:20;9.00;28.30
439;DHT22;206;48.782;9.252;2023-02-01T11:43:57;9.00;28.20
439;DHT22;206;48.782;9.252;2023-02-01T11:46:30;9.10;27.90
439;DHT22;206;48.782;9.252;2023-02-01T11:49:14;9.10;27.80
439;DHT22;206;48.782;9.252;2023-02-01T11:52:16;9.00;27.80
439;DHT22;206;48.782;9.252;2023-02-01T11:55:59;9.00;27.70
439;DHT22;206;48.782;9.252;2023-02-01T12:00:47;9.00;27.40
439;DHT22;206;48.782;9.252;2023-02-01T12:03:41;9.10;27.60
439;DHT22;206;48.782;9.252;2023-02-01T12:06:31;9.20;27.20
439;DHT22;206;48.782;9.252;2023-02-01T12:14:27;9.20;25.90
439;DHT22;206;48.782;9.252;2023-02-01T12:36:27;9.00;26.40
439;DHT22;206;48.782;9.252;2023-02-01T12:46:50;8.90;26.40
439;DHT22;206;48.782;9.252;2023-02-01T12:49:21;8.90;26.90
439;DHT22;206;48.782;9.252;2023-02-01T12:51:53;8.80;27.00
439;DHT22;206;48.782;9.252;2023-02-01T12:57:01;8.80;27.70
439;DHT22;206;48.782;9.252;2023-02-01T13:00:02;8.80;27.60
439;DHT22;206;48.782;9.252;2023-02-01T13:03:00;8.80;27.70
439;DHT22;206;48.782;9.252;2023-02-01T13:05:36;8.80;27.60
439;DHT22;206;48.782;9.252;2023-02-01T13:08:17;8.80;28.40
439;DHT22;206;48.782;9.252;2023-02-01T13:10:58;8.70;28.80
439;DHT22;206;48.782;9.252;2023-02-01T13:16:06;8.70;30.00
439;DHT22;206;48.782;9.252;2023-02-01T13:18:38;8.70;30.30
439;DHT22;206;48.782;9.252;2023-02-01T13:21:27;8.60;30.00
439;DHT22;206;48.782;9.252;2023-02-01T13:23:54;8.60;30.10
439;DHT22;206;48.782;9.252;2023-02-01T13:26:20;8.60;29.80
439;DHT22;206;48.782;9.252;2023-02-01T13:29:18;8.70;29.40
439;DHT22;206;48.782;9.252;2023-02-01T13:32:16;8.80;29.30
439;DHT22;206;48.782;9.252;2023-02-01T13:42:58;8.90;28.70
439;DHT22;206;48.782;9.252;2023-02-01T13:45:30;8.90;28.20
439;DHT22;206;48.782;9.252;2023-02-01T13:48:00;8.80;28.50
439;DHT22;206;48.782;9.252;2023-02-01T13:53:17;8.70;28.70
439;DHT22;206;48.782;9.252;2023-02-01T13:56:01;8.70;29.10
439;DHT22;206;48.782;9.252;2023-02-01T13:58:33;8.70;30.30
439;DHT22;206;48.782;9.252;2023-02-01T14:03:51;8.70;31.80
439;DHT22;206;48.782;9.252;2023-02-01T14:11:48;8.70;31.70
439;DHT22;206;48.782;9.252;2023-02-01T14:19:32;8.80;30.90
439;DHT22;206;48.782;9.252;2023-02-01T14:22:44;8.80;29.90
439;DHT22;206;48.782;9.252;2023-02-01T14:24:50;8.90;30.00
439;DHT22;206;48.782;9.252;2023-02-01T14:27:21;8.90;29.20
439;DHT22;206;48.782;9.252;2023-02-01T14:29:53;8.90;28.90
439;DHT22;206;48.782;9.252;2023-02-01T14:32:36;8.90;29.00
439;DHT22;206;48.782;9.252;2023-02-01T14:35:07;8.80;28.80
439;DHT22;206;48.782;9.252;2023-02-01T14:37:36;8.70;28.80
439;DHT22;206;48.782;9.252;2023-02-01T14:40:16;8.70;29.00
439;DHT22;206;48.782;9.252;2023-02-01T14:47:48;8.70;28.70
439;DHT22;206;48.782;9.252;2023-02-01T14:50:31;8.70;28.80
439;DHT22;206;48.782;9.252;2023-02-01T14:58:45;8.70;29.10
439;DHT22;206;48.782;9.252;2023-02-01T15:04:13;8.60;29.80
439;DHT22;206;48.782;9.252;2023-02-01T15:06:45;8.50;29.90
439;DHT22;206;48.782;9.252;2023-02-01T15:09:24;8.50;30.10
439;DHT22;206;48.782;9.252;2023-02-01T15:17:02;8.40;29.90
439;DHT22;206;48.782;9.252;2023-02-01T15:19:29;8.40;30.00
439;DHT22;206;48.782;9.252;2023-02-01T15:21:56;8.40;30.00
439;DHT22;206;48.782;9.252;2023-02-01T15:26:49;8.50;29.90
439;DHT22;206;48.782;9.252;2023-02-01T15:29:23;8.50;29.80
439;DHT22;206;48.782;9.252;2023-02-01T15:31:53;8.50;29.80
439;DHT22;206;48.782;9.252;2023-02-01T15:34:20;8.40;30.10
439;DHT22;206;48.782;9.252;2023-02-01T15:36:46;8.40;30.10
439;DHT22;206;48.782;9.252;2023-02-01T15:39:17;8.30;30.60
439;DHT22;206;48.782;9.252;2023-02-01T15:42:11;8.30;30.90
439;DHT22;206;48.782;9.252;2023-02-01T15:44:43;8.30;31.50
439;DHT22;206;48.782;9.252;2023-02-01T15:47:24;8.30;31.00
439;DHT22;206;48.782;9.252;2023-02-01T15:49:55;8.30;30.50
439;DHT22;206;48.782;9.252;2023-02-01T15:52:35;8.30;30.30
439;DHT22;206;48.782;9.252;2023-02-01T15:55:04;8.40;30.30
439;DHT22;206;48.782;9.252;2023-02-01T15:57:35;8.40;29.60
439;DHT22;206;48.782;9.252;2023-02-01T16:02:57;8.40;29.40
439;DHT22;206;48.782;9.252;2023-02-01T16:05:36;8.40;29.50
439;DHT22;206;48.782;9.252;2023-02-01T16:08:21;8.50;29.20
439;DHT22;206;48.782;9.252;2023-02-01T16:10:49;8.40;28.90
439;DHT22;206;48.782;9.252;2023-02-01T16:13:17;8.40;28.90
439;DHT22;206;48.782;9.252;2023-02-01T16:15:43;8.40;29.10
439;DHT22;206;48.782;9.252;2023-02-01T16:18:11;8.40;28.90
439;DHT22;206;48.782;9.252;2023-02-01T16:20:39;8.30;28.90
439;DHT22;206;48.782;9.252;2023-02-01T16:23:06;8.40;28.90
439;DHT22;206;48.782;9.252;2023-02-01T16:25:32;8.30;28.50
439;DHT22;206;48.782;9.252;2023-02-01T16:27:57;8.30;28.80
439;DHT22;206;48.782;9.252;2023-02-01T16:30:23;8.30;28.50
439;DHT22;206;48.782;9.252;2023-02-01T16:32:57;8.30;28.60
439;DHT22;206;48.782;9.252;2023-02-01T16:35:28;8.30;28.80
439;DHT22;206;48.782;9.252;2023-02-01T16:37:57;8.30;28.80
439;DHT22;206;48.782;9.252;2023-02-01T16:40:23;8.30;28.80
439;DHT22;206;48.782;9.252;2023-02-01T16:42:50;8.30;28.80
439;DHT22;206;48.782;9.252;2023-02-01T16:45:16;8.30;28.30
439;DHT22;206;48.782;9.252;2023-02-01T16:47:50;8.30;28.70
439;DHT22;206;48.782;9.252;2023-02-01T16:50:20;8.40;28.80
439;DHT22;206;48.782;9.252;2023-02-01T16:52:46;8.40;28.50
439;DHT22;206;48.782;9.252;2023-02-01T16:55:13;8.40;28.50
439;DHT22;206;48.782;9.252;2023-02-01T16:57:39;8.30;28.20
439;DHT22;206;48.782;9.252;2023-02-01T17:00:06;8.30;28.00
439;DHT22;206;48.782;9.252;2023-02-01T17:02:32;8.20;28.40
439;DHT22;206;48.782;9.252;2023-02-01T17:04:57;8.30;28.60
439;DHT22;206;48.782;9.252;2023-02-01T17:07:23;8.20;28.40
439;DHT22;206;48.782;9.252;2023-02-01T17:09:49;8.20;28.40
439;DHT22;206;48.782;9.252;2023-02-01T17:12:35;8.20;28.70
439;DHT22;206;48.782;9.252;2023-02-01T17:15:01;8.10;28.70
439;DHT22;206;48.782;9.252;2023-02-01T17:17:37;8.10;28.80
439;DHT22;206;48.782;9.252;2023-02-01T17:20:04;8.10;28.70
439;DHT22;206;48.782;9.252;2023-02-01T17:22:31;8.10;28.70
439;DHT22;206;48.782;9.252;2023-02-01T17:24:56;8.10;28.90
439;DHT22;206;48.782;9.252;2023-02-01T17:27:22;8.10;28.90
439;DHT22;206;48.782;9.252;2023-02-01T17:29:48;8.10;28.90
439;DHT22;206;48.782;9.252;2023-02-01T17:32:19;8.10;28.90
439;DHT22;206;48.782;9.252;2023-02-01T17:34:46;8.20;28.90
439;DHT22;206;48.782;9.252;2023-02-01T17:37:25;8.20;28.70
439;DHT22;206;48.782;9.252;2023-02-01T17:39:51;8.20;28.80
439;DHT22;206;48.782;9.252;2023-02-01T17:42:19;8.20;28.80
439;DHT22;206;48.782;9.252;2023-02-01T17:44:46;8.10;29.00
439;DHT22;206;48.782;9.252;2023-02-01T17:47:11;8.20;29.00
439;DHT22;206;48.782;9.252;2023-02-01T17:49:37;8.20;29.40
439;DHT22;206;48.782;9.252;2023-02-01T17:52:04;8.20;29.20
439;DHT22;206;48.782;9.252;2023-02-01T17:54:30;8.20;29.40
439;DHT22;206;48.782;9.252;2023-02-01T17:56:55;8.20;29.40
439;DHT22;206;48.782;9.252;2023-02-01T17:59:25;8.20;29.40
439;DHT22;206;48.782;9.252;2023-02-01T18:01:51;8.20;29.20
439;DHT22;206;48.782;9.252;2023-02-01T18:04:18;8.10;29.30
439;DHT22;206;48.782;9.252;2023-02-01T18:06:44;8.10;29.60
439;DHT22;206;48.782;9.252;2023-02-01T18:09:10;8.10;29.80
439;DHT22;206;48.782;9.252;2023-02-01T18:11:35;8.10;29.80
439;DHT22;206;48.782;9.252;2023-02-01T18:14:01;8.10;30.00
439;DHT22;206;48.782;9.252;2023-02-01T18:16:30;8.10;30.00
439;DHT22;206;48.782;9.252;2023-02-01T18:18:56;8.00;30.10
439;DHT22;206;48.782;9.252;2023-02-01T18:21:37;8.00;30.20
439;DHT22;206;48.782;9.252;2023-02-01T18:24:04;8.00;30.40
439;DHT22;206;48.782;9.252;2023-02-01T18:26:29;8.00;30.30
439;DHT22;206;48.782;9.252;2023-02-01T18:28:55;8.00;30.30
439;DHT22;206;48.782;9.252;2023-02-01T18:31:23;8.10;30.50
439;DHT22;206;48.782;9.252;2023-02-01T18:33:50;8.10;30.60
439;DHT22;206;48.782;9.252;2023-02-01T18:36:16;8.10;30.40
439;DHT22;206;48.782;9.252;2023-02-01T18:38:42;8.10;30.60
439;DHT22;206;48.782;9.252;2023-02-01T18:41:15;8.10;30.60
439;DHT22;206;48.782;9.252;2023-02-01T18:43:41;8.00;30.80
439;DHT22;206;48.782;9.252;2023-02-01T18:46:10;8.00;30.80
439;DHT22;206;48.782;9.252;2023-02-01T18:48:36;8.10;30.90
439;DHT22;206;48.782;9.252;2023-02-01T18:51:02;8.10;30.80
439;DHT22;206;48.782;9.252;2023-02-01T18:53:27;8.10;30.60
439;DHT22;206;48.782;9.252;2023-02-01T18:55:54;8.10;30.60
439;DHT22;206;48.782;9.252;2023-02-01T18:58:20;8.10;30.50
439;DHT22;206;48.782;9.252;2023-02-01T19:00:52;8.10;30.20
439;DHT22;206;48.782;9.252;2023-02-01T19:03:18;8.10;30.10
439;DHT22;206;48.782;9.252;2023-02-01T19:05:45;8.10;29.90
439;DHT22;206;48.782;9.252;2023-02-01T19:08:11;8.10;30.00
439;DHT22;206;48.782;9.252;2023-02-01T19:10:37;8.10;29.90
439;DHT22;206;48.782;9.252;2023-02-01T19:13:05;8.10;29.70
439;DHT22;206;48.782;9.252;2023-02-01T19:15:31;8.10;29.80
439;DHT22;206;48.782;9.252;2023-02-01T19:18:00;8.10;29.70
439;DHT22;206;48.782;9.252;2023-02-01T19:20:26;8.10;29.50
439;DHT22;206;48.782;9.252;2023-02-01T19:22:52;8.10;29.50
439;DHT22;206;48.782;9.252;2023-02-01T19:25:20;8.10;29.70
439;DHT22;206;48.782;9.252;2023-02-01T19:27:48;8.10;29.70
439;DHT22;206;48.782;9.252;2023-02-01T19:30:14;8.00;29.70
439;DHT22;206;48.782;9.252;2023-02-01T19:32:40;7.90;29.80
439;DHT22;206;48.782;9.252;2023-02-01T19:35:07;7.90;29.80
439;DHT22;206;48.782;9.252;2023-02-01T19:37:34;7.90;30.00
439;DHT22;206;48.782;9.252;2023-02-01T19:39:59;7.90;30.60
439;DHT22;206;48.782;9.252;2023-02-01T19:42:26;7.90;30.10